createdAt,value
2018-07-19T00:03:58.422Z,4.33
2018-07-19T00:08:02.099Z,3.13
2018-07-19T00:12:05.738Z,3.63
2018-07-19T00:16:09.512Z,3.50
2018-07-19T00:20:13.154Z,3.40
2018-07-19T00:24:16.902Z,4.30
2018-07-19T00:28:20.550Z,3.37
2018-07-19T00:32:24.107Z,3.93
2018-07-19T00:36:27.892Z,3.67
2018-07-19T00:40:31.568Z,4.40
2018-07-19T00:44:35.087Z,3.83
2018-07-19T00:48:38.882Z,3.57
2018-07-19T00:52:42.783Z,3.90
2018-07-19T00:56:46.692Z,4.07
2018-07-19T01:00:50.208Z,3.67
2018-07-19T01:04:53.819Z,5.30
2018-07-19T01:08:57.568Z,6.03
2018-07-19T01:13:01.340Z,4.00
2018-07-19T01:17:04.995Z,4.23
2018-07-19T01:21:08.543Z,4.77
2018-07-19T01:25:12.284Z,4.90
2018-07-19T01:29:15.956Z,5.77
2018-07-19T01:33:19.473Z,4.67
2018-07-19T01:37:23.243Z,7.80
2018-07-19T01:42:20.094Z,5.20
2018-07-19T01:46:24.273Z,5.03
2018-07-19T01:50:27.920Z,5.50
2018-07-19T01:54:31.463Z,5.40
2018-07-19T01:58:35.161Z,5.50
2018-07-19T02:02:38.710Z,5.47
2018-07-19T02:06:42.248Z,5.13
2018-07-19T02:10:46.140Z,5.10
2018-07-19T02:14:50.022Z,6.13
2018-07-19T02:18:53.811Z,5.87
2018-07-19T02:22:57.559Z,5.67
2018-07-19T02:27:01.323Z,6.00
2018-07-19T02:31:05.104Z,5.40
2018-07-19T02:35:09.013Z,6.23
2018-07-19T02:39:13.575Z,5.60
2018-07-19T02:43:17.483Z,6.53
2018-07-19T02:47:21.128Z,6.50
2018-07-19T02:51:24.689Z,6.37
2018-07-19T02:55:28.437Z,6.10
2018-07-19T02:59:32.452Z,5.93
2018-07-19T03:03:36.331Z,5.53
2018-07-19T03:07:43.384Z,6.60
2018-07-19T03:11:47.131Z,6.60
2018-07-19T03:15:51.044Z,6.67
2018-07-19T03:19:54.912Z,5.47
2018-07-19T03:23:58.841Z,5.77
2018-07-19T03:28:02.739Z,6.80
2018-07-19T03:32:06.367Z,7.00
2018-07-19T03:36:10.112Z,7.50
2018-07-19T03:40:14.195Z,6.07
2018-07-19T03:44:17.989Z,7.20
2018-07-19T03:48:21.679Z,7.50
2018-07-19T03:52:25.551Z,8.53
2018-07-19T03:56:29.576Z,8.50
2018-07-19T04:00:33.675Z,8.53
2018-07-19T04:04:37.352Z,7.27
2018-07-19T04:08:41.128Z,8.00
2018-07-19T04:12:44.895Z,8.53
2018-07-19T04:16:48.435Z,7.30
2018-07-19T04:20:52.239Z,7.27
2018-07-19T04:24:56.104Z,9.87
2018-07-19T04:29:00.436Z,7.60
2018-07-19T04:33:04.307Z,8.50
2018-07-19T04:37:08.147Z,9.10
2018-07-19T04:41:11.707Z,9.53
2018-07-19T04:45:16.595Z,8.27
2018-07-19T04:49:20.464Z,8.57
2018-07-19T04:53:24.379Z,9.00
2018-07-19T04:57:28.043Z,9.30
2018-07-19T05:01:32.020Z,8.43
2018-07-19T05:05:35.910Z,8.50
2018-07-19T05:09:39.808Z,7.23
2018-07-19T05:13:43.459Z,8.80
2018-07-19T05:17:47.247Z,8.50
2018-07-19T05:21:51.127Z,8.80
2018-07-19T05:25:54.940Z,9.23
2018-07-19T05:29:58.476Z,8.73
2018-07-19T05:34:02.299Z,8.30
2018-07-19T05:38:05.971Z,7.97
2018-07-19T05:42:09.852Z,8.73
2018-07-19T05:46:13.709Z,9.60
2018-07-19T05:50:17.427Z,8.53
2018-07-19T05:54:22.150Z,10.23
2018-07-19T05:58:26.090Z,12.10
2018-07-19T06:02:29.853Z,11.30
2018-07-19T06:06:33.628Z,8.57
2018-07-19T06:10:37.508Z,8.30
2018-07-19T06:14:41.304Z,10.50
2018-07-19T06:18:44.884Z,9.77
2018-07-19T06:22:48.382Z,9.67
2018-07-19T06:26:52.133Z,9.13
2018-07-19T06:30:56.257Z,10.93
2018-07-19T06:34:59.900Z,9.83
2018-07-19T06:39:04.508Z,10.10
2018-07-19T06:43:08.636Z,8.90
2018-07-19T06:47:12.668Z,9.97
2018-07-19T06:51:16.323Z,11.73
2018-07-19T06:55:19.887Z,9.80
2018-07-19T06:59:23.415Z,9.60
2018-07-19T07:03:27.306Z,8.93
2018-07-19T07:07:30.941Z,9.03
2018-07-19T07:11:34.549Z,9.80
2018-07-19T07:15:38.380Z,10.13
2018-07-19T07:19:42.285Z,8.67
2018-07-19T07:23:45.939Z,9.47
2018-07-19T07:27:49.801Z,8.97
2018-07-19T07:31:53.540Z,7.60
2018-07-19T07:35:57.316Z,8.60
2018-07-19T07:40:00.979Z,6.23
2018-07-19T07:44:05.034Z,5.83
2018-07-19T07:48:08.843Z,5.60
2018-07-19T07:52:12.515Z,4.40
2018-07-19T07:56:16.033Z,3.50
2018-07-19T08:00:19.804Z,2.87
2018-07-19T08:04:23.699Z,2.30
2018-07-19T08:08:27.371Z,7.97
2018-07-19T08:12:30.884Z,2.90
2018-07-19T08:16:34.460Z,3.13
2018-07-19T08:20:38.086Z,2.03
2018-07-19T08:24:41.640Z,2.70
2018-07-19T08:28:45.148Z,2.97
2018-07-19T08:32:49.092Z,3.30
2018-07-19T08:36:52.720Z,3.40
2018-07-19T08:40:56.271Z,7.63
2018-07-19T08:45:00.028Z,2.73
2018-07-19T08:49:06.327Z,3.17
2018-07-19T08:53:10.223Z,3.70
2018-07-19T08:57:14.375Z,2.93
2018-07-19T09:01:17.903Z,3.43
2018-07-19T09:05:21.714Z,3.90
2018-07-19T09:09:25.457Z,4.07
2018-07-19T09:13:29.138Z,3.57
2018-07-19T09:17:32.909Z,2.97
2018-07-19T09:21:36.573Z,3.60
2018-07-19T09:25:40.118Z,3.67
2018-07-19T09:29:43.896Z,2.90
2018-07-19T09:33:47.888Z,3.07
2018-07-19T09:37:51.567Z,4.33
2018-07-19T09:41:55.127Z,6.30
2018-07-19T09:45:58.825Z,3.47
2018-07-19T09:50:02.455Z,8.73
2018-07-19T09:54:06.220Z,5.57
2018-07-19T09:58:09.791Z,4.43
2018-07-19T10:02:13.335Z,5.27
2018-07-19T10:06:17.156Z,3.27
2018-07-19T10:10:20.875Z,2.97
2018-07-19T10:14:24.339Z,3.70
2018-07-19T10:18:28.116Z,3.23
2018-07-19T10:22:31.744Z,3.20
2018-07-19T10:26:35.342Z,3.97
2018-07-19T10:30:39.037Z,6.53
2018-07-19T10:34:43.071Z,2.67
2018-07-19T10:38:46.593Z,3.90
2018-07-19T10:42:50.208Z,3.23
2018-07-19T10:46:53.720Z,3.70
2018-07-19T10:50:57.558Z,4.40
2018-07-19T10:55:01.199Z,3.80
2018-07-19T10:59:04.767Z,3.30
2018-07-19T11:03:08.292Z,3.93
2018-07-19T11:07:12.398Z,3.30
2018-07-19T11:11:16.080Z,3.10
2018-07-19T11:15:19.631Z,3.77
2018-07-19T11:19:23.408Z,3.10
2018-07-19T11:23:27.087Z,3.37
2018-07-19T11:27:30.824Z,4.23
2018-07-19T11:31:34.494Z,4.07
2018-07-19T11:35:38.142Z,3.60
2018-07-19T11:39:41.888Z,3.47
2018-07-19T11:43:45.739Z,3.77
2018-07-19T11:47:49.500Z,4.33
2018-07-19T11:51:53.000Z,4.60
2018-07-19T11:55:56.581Z,4.70
2018-07-19T12:00:00.121Z,4.10
2018-07-19T12:04:03.687Z,5.07
2018-07-19T12:08:07.207Z,5.43
2018-07-19T12:12:11.060Z,4.97
2018-07-19T12:16:15.077Z,4.20
2018-07-19T12:20:18.772Z,5.50
2018-07-19T12:24:24.262Z,6.10
2018-07-19T12:28:28.137Z,4.97
2018-07-19T12:32:32.072Z,4.03
2018-07-19T12:36:35.883Z,4.17
2018-07-19T12:40:39.411Z,4.83
2018-07-19T12:44:43.210Z,5.47
2018-07-19T12:48:46.844Z,5.67
2018-07-19T12:52:50.629Z,3.87
2018-07-19T12:56:54.543Z,3.57
2018-07-19T13:00:58.175Z,4.60
2018-07-19T13:05:01.932Z,4.70
2018-07-19T13:09:07.780Z,3.90
2018-07-19T13:13:11.649Z,5.93
2018-07-19T13:17:15.338Z,5.00
2018-07-19T13:21:19.077Z,7.30
2018-07-19T13:25:22.985Z,10.90
2018-07-19T13:29:26.643Z,4.90
2018-07-19T13:33:30.792Z,5.43
2018-07-19T13:37:34.884Z,4.50
2018-07-19T13:41:38.652Z,4.20
2018-07-19T13:45:42.167Z,5.10
2018-07-19T13:49:45.976Z,4.53
2018-07-19T13:53:55.304Z,4.90
2018-07-19T13:57:58.863Z,5.77
2018-07-19T14:02:02.600Z,4.83
2018-07-19T14:06:06.789Z,4.53
2018-07-19T14:10:10.451Z,5.00
2018-07-19T14:14:14.091Z,5.33
2018-07-19T14:18:17.839Z,4.50
2018-07-19T14:22:21.752Z,4.90
2018-07-19T14:26:25.447Z,5.47
2018-07-19T14:30:29.228Z,5.40
2018-07-19T14:34:33.104Z,4.87
2018-07-19T14:38:36.992Z,4.00
2018-07-19T14:42:40.739Z,7.60
2018-07-19T14:46:44.633Z,4.67
2018-07-19T14:50:48.511Z,4.23
2018-07-19T14:54:52.194Z,5.90
2018-07-19T14:58:55.711Z,5.23
2018-07-19T15:03:00.264Z,6.80
2018-07-19T15:07:03.783Z,5.30
2018-07-19T15:11:07.340Z,6.43
2018-07-19T15:15:11.108Z,6.13
2018-07-19T15:19:14.866Z,5.80
2018-07-19T15:23:18.387Z,5.63
2018-07-19T15:27:22.180Z,7.20
2018-07-19T15:31:25.897Z,6.00
2018-07-19T15:35:29.543Z,6.03
2018-07-19T15:39:33.201Z,6.90
2018-07-19T15:43:36.855Z,7.07
2018-07-19T15:47:40.593Z,6.33
2018-07-19T15:51:44.442Z,5.90
2018-07-19T15:55:48.955Z,5.53
2018-07-19T15:59:52.761Z,6.53
2018-07-19T16:03:56.259Z,5.43
2018-07-19T16:07:59.796Z,7.30
2018-07-19T16:12:09.923Z,4.50
2018-07-19T16:16:13.521Z,3.60
2018-07-19T16:20:17.032Z,3.93
2018-07-19T16:24:20.599Z,4.37
2018-07-19T16:28:24.332Z,4.03
2018-07-19T16:32:28.136Z,4.00
2018-07-19T16:36:31.645Z,4.27
2018-07-19T16:40:35.520Z,3.73
2018-07-19T16:44:39.372Z,4.00
2018-07-19T16:48:43.528Z,4.90
2018-07-19T16:52:47.194Z,4.73
2018-07-19T16:56:50.743Z,4.03
2018-07-19T17:00:54.484Z,5.13
2018-07-19T17:04:58.175Z,3.77
2018-07-19T17:09:01.691Z,3.93
2018-07-19T17:13:05.785Z,4.27
2018-07-19T17:17:09.488Z,3.40
2018-07-19T17:21:13.368Z,3.83
2018-07-19T17:25:17.280Z,3.47
2018-07-19T17:29:21.188Z,3.57
2018-07-19T17:33:24.842Z,5.60
2018-07-19T17:37:28.501Z,2.90
2018-07-19T17:41:32.179Z,4.13
2018-07-19T17:45:35.828Z,3.30
2018-07-19T17:49:39.365Z,3.43
2018-07-19T17:53:43.318Z,2.83
2018-07-19T17:57:47.038Z,3.93
2018-07-19T18:01:50.888Z,2.83
2018-07-19T18:05:54.733Z,3.13
2018-07-19T18:09:58.511Z,3.63
2018-07-19T18:14:02.077Z,4.30
2018-07-19T18:18:06.180Z,2.87
2018-07-19T18:22:10.162Z,2.57
2018-07-19T18:26:14.108Z,2.50
2018-07-19T18:30:17.660Z,2.53
2018-07-19T18:34:21.220Z,5.43
2018-07-19T18:38:24.735Z,3.13
2018-07-19T18:42:28.504Z,2.90
2018-07-19T18:46:32.156Z,4.93
2018-07-19T18:50:35.714Z,2.70
2018-07-19T18:54:39.461Z,3.17
2018-07-19T18:58:43.151Z,3.97
2018-07-19T19:02:46.684Z,2.77
2018-07-19T19:06:50.479Z,3.77
2018-07-19T19:10:54.347Z,4.63
2018-07-19T19:14:58.039Z,3.37
2018-07-19T19:19:01.740Z,3.30
2018-07-19T19:23:05.307Z,7.70
2018-07-19T19:27:08.835Z,3.97
2018-07-19T19:31:12.645Z,4.30
2018-07-19T19:35:16.280Z,5.17
2018-07-19T19:39:19.847Z,4.40
2018-07-19T19:43:23.588Z,4.27
2018-07-19T19:47:27.259Z,4.97
2018-07-19T19:51:30.791Z,4.47
2018-07-19T19:55:34.593Z,4.93
2018-07-19T19:59:39.319Z,7.10
2018-07-19T20:03:43.101Z,4.27
2018-07-19T20:07:46.763Z,5.77
2018-07-19T20:11:50.637Z,4.97
2018-07-19T20:15:56.428Z,6.60
2018-07-19T20:20:00.271Z,6.60
2018-07-19T20:24:03.834Z,6.30
2018-07-19T20:28:07.479Z,6.17
2018-07-19T20:32:11.732Z,7.70
2018-07-19T20:36:15.284Z,7.67
2018-07-19T20:40:18.952Z,6.57
2018-07-19T20:44:22.844Z,7.63
2018-07-19T20:48:28.924Z,7.10
2018-07-19T20:52:32.599Z,6.03
2018-07-19T20:56:36.364Z,7.93
2018-07-19T21:00:40.124Z,7.20
2018-07-19T21:04:43.779Z,7.80
2018-07-19T21:08:47.352Z,7.27
2018-07-19T21:12:51.145Z,8.70
2018-07-19T21:16:54.692Z,6.77
2018-07-19T21:20:58.568Z,7.97
2018-07-19T21:25:02.484Z,6.97
2018-07-19T21:29:06.216Z,8.90
2018-07-19T21:33:09.911Z,7.03
2018-07-19T21:37:13.442Z,6.97
2018-07-19T21:41:17.688Z,7.73
2018-07-19T21:45:21.339Z,6.97
2018-07-19T21:49:25.148Z,6.03
2018-07-19T21:53:29.071Z,6.00
2018-07-19T21:57:32.923Z,5.60
2018-07-19T22:01:40.783Z,7.27
2018-07-19T22:05:44.619Z,6.60
2018-07-19T22:09:48.484Z,7.10
2018-07-19T22:13:52.252Z,6.93
2018-07-19T22:17:56.035Z,6.23
2018-07-19T22:21:59.655Z,6.73
2018-07-19T22:26:03.610Z,7.80
2018-07-19T22:30:07.347Z,9.83
2018-07-19T22:34:11.291Z,7.37
2018-07-19T22:38:15.216Z,7.07
2018-07-19T22:42:18.881Z,7.13
2018-07-19T22:46:22.547Z,8.23
2018-07-19T22:50:27.313Z,7.43
2018-07-19T22:54:31.215Z,10.23
2018-07-19T22:58:36.096Z,6.60
2018-07-19T23:02:40.037Z,7.73
2018-07-19T23:06:43.679Z,7.30
2018-07-19T23:10:47.224Z,10.63
2018-07-19T23:14:51.314Z,7.20
2018-07-19T23:18:55.212Z,10.23
2018-07-19T23:22:59.483Z,7.63
2018-07-19T23:27:03.491Z,7.30
2018-07-19T23:31:07.119Z,7.00
2018-07-19T23:35:11.116Z,8.80
2018-07-19T23:39:19.563Z,7.47
2018-07-19T23:43:27.720Z,6.83
2018-07-19T23:47:33.954Z,6.23
2018-07-19T23:51:38.655Z,9.37
2018-07-19T23:55:42.439Z,7.97
2018-07-19T23:59:46.241Z,7.40
